createdAt,value
2019-05-09T00:00:58.783Z,3.80
2019-05-09T00:04:03.514Z,3.58
2019-05-09T00:07:09.454Z,3.35
2019-05-09T00:10:14.233Z,3.05
2019-05-09T00:13:20.471Z,3.58
2019-05-09T00:16:23.652Z,3.33
2019-05-09T00:19:26.615Z,3.08
2019-05-09T00:22:30.367Z,2.80
2019-05-09T00:25:36.311Z,2.80
2019-05-09T00:28:44.000Z,2.95
2019-05-09T00:32:06.226Z,3.10
2019-05-09T00:35:23.365Z,3.25
2019-05-09T00:38:34.773Z,3.27
2019-05-09T00:41:39.615Z,3.45
2019-05-09T00:44:46.790Z,4.05
2019-05-09T00:47:53.910Z,3.45
2019-05-09T00:50:59.950Z,3.83
2019-05-09T00:54:05.257Z,3.40
2019-05-09T00:57:13.774Z,3.85
2019-05-09T01:00:19.431Z,3.65
2019-05-09T01:03:25.122Z,3.52
2019-05-09T01:06:28.006Z,3.75
2019-05-09T01:09:33.211Z,3.50
2019-05-09T01:12:37.451Z,3.12
2019-05-09T01:15:44.001Z,3.30
2019-05-09T01:18:50.626Z,2.87
2019-05-09T01:21:54.743Z,3.55
2019-05-09T01:25:00.603Z,2.90
2019-05-09T01:28:03.695Z,3.10
2019-05-09T01:31:09.331Z,3.30
2019-05-09T01:34:17.980Z,3.30
2019-05-09T01:37:23.726Z,3.50
2019-05-09T01:40:27.935Z,3.20
2019-05-09T01:43:33.739Z,3.00
2019-05-09T01:46:36.522Z,3.22
2019-05-09T01:49:40.358Z,3.02
2019-05-09T01:52:45.058Z,2.83
2019-05-09T01:55:59.992Z,3.10
2019-05-09T01:59:05.513Z,3.37
2019-05-09T02:02:09.055Z,3.30
2019-05-09T02:05:13.510Z,3.35
2019-05-09T02:08:17.906Z,3.30
2019-05-09T02:11:23.810Z,3.50
2019-05-09T02:14:36.650Z,3.60
2019-05-09T02:18:04.258Z,3.08
2019-05-09T02:21:07.142Z,3.60
2019-05-09T02:24:14.051Z,3.80
2019-05-09T02:27:16.812Z,3.37
2019-05-09T02:30:25.452Z,3.83
2019-05-09T02:33:28.519Z,3.47
2019-05-09T02:36:32.462Z,3.40
2019-05-09T02:39:35.599Z,3.58
2019-05-09T02:42:40.328Z,3.90
2019-05-09T02:45:59.703Z,4.30
2019-05-09T02:49:04.784Z,4.22
2019-05-09T02:52:08.815Z,4.05
2019-05-09T02:55:13.210Z,3.33
2019-05-09T02:58:20.290Z,4.03
2019-05-09T03:01:33.031Z,3.80
2019-05-09T03:04:39.129Z,4.12
2019-05-09T03:07:53.042Z,3.67
2019-05-09T03:10:58.856Z,3.90
2019-05-09T03:14:02.101Z,4.05
2019-05-09T03:17:08.798Z,3.37
2019-05-09T03:20:29.209Z,3.60
2019-05-09T03:23:38.830Z,3.77
2019-05-09T03:26:44.885Z,3.08
2019-05-09T03:29:52.278Z,3.67
2019-05-09T03:32:59.652Z,3.47
2019-05-09T03:36:03.112Z,3.65
2019-05-09T03:39:08.991Z,3.87
2019-05-09T03:42:20.676Z,3.75
2019-05-09T03:45:22.892Z,3.30
2019-05-09T03:48:32.458Z,3.12
2019-05-09T03:51:35.231Z,3.58
2019-05-09T03:54:41.022Z,3.60
2019-05-09T03:57:49.290Z,3.50
2019-05-09T04:00:53.310Z,3.17
2019-05-09T04:03:58.263Z,3.05
2019-05-09T04:07:04.916Z,3.12
2019-05-09T04:10:10.782Z,3.33
2019-05-09T04:13:14.874Z,3.10
2019-05-09T04:16:19.231Z,3.37
2019-05-09T04:19:23.960Z,2.98
2019-05-09T04:22:27.974Z,2.70
2019-05-09T04:25:33.108Z,2.80
2019-05-09T04:28:39.857Z,2.75
2019-05-09T04:31:42.968Z,2.72
2019-05-09T04:34:47.294Z,3.45
2019-05-09T04:37:51.724Z,2.55
2019-05-09T04:40:58.320Z,2.60
2019-05-09T04:44:17.102Z,2.90
2019-05-09T04:47:13.583Z,3.17
2019-05-09T04:50:23.569Z,2.50
2019-05-09T04:53:25.324Z,2.85
2019-05-09T04:56:33.125Z,2.95
2019-05-09T04:59:37.395Z,2.15
2019-05-09T05:02:48.523Z,2.22
2019-05-09T05:05:54.802Z,2.60
2019-05-09T05:09:00.760Z,1.82
2019-05-09T05:12:05.238Z,2.30
2019-05-09T05:15:13.283Z,2.22
2019-05-09T05:18:17.803Z,2.45
2019-05-09T05:21:25.486Z,2.17
2019-05-09T05:24:43.652Z,2.27
2019-05-09T05:27:49.618Z,2.10
2019-05-09T05:30:55.297Z,2.33
2019-05-09T05:34:04.064Z,2.05
2019-05-09T05:37:10.807Z,2.10
2019-05-09T05:40:17.786Z,2.33
2019-05-09T05:43:37.117Z,2.12
2019-05-09T05:46:40.228Z,1.90
2019-05-09T05:49:45.262Z,2.22
2019-05-09T05:52:49.174Z,1.67
2019-05-09T05:55:53.112Z,1.87
2019-05-09T05:58:58.095Z,1.67
2019-05-09T06:02:03.378Z,1.90
2019-05-09T06:05:08.483Z,1.65
2019-05-09T06:08:12.287Z,2.10
2019-05-09T06:11:18.171Z,1.80
2019-05-09T06:14:22.130Z,1.40
2019-05-09T06:17:24.976Z,1.50
2019-05-09T06:20:31.746Z,2.00
2019-05-09T06:23:37.393Z,2.30
2019-05-09T06:26:40.290Z,1.90
2019-05-09T06:29:47.715Z,1.65
2019-05-09T06:32:52.358Z,1.90
2019-05-09T06:35:58.668Z,2.30
2019-05-09T06:39:02.879Z,2.35
2019-05-09T06:42:09.592Z,2.40
2019-05-09T06:45:27.246Z,2.27
2019-05-09T06:48:31.423Z,1.85
2019-05-09T06:51:38.715Z,1.90
2019-05-09T06:54:43.436Z,1.98
2019-05-09T06:57:49.898Z,1.98
2019-05-09T07:01:01.422Z,1.98
2019-05-09T07:04:13.183Z,2.12
2019-05-09T07:07:37.622Z,2.08
2019-05-09T07:10:41.466Z,2.05
2019-05-09T07:13:47.249Z,2.02
2019-05-09T07:16:54.478Z,2.02
2019-05-09T07:19:59.248Z,1.85
2019-05-09T07:23:03.306Z,1.87
2019-05-09T07:26:17.839Z,1.80
2019-05-09T07:29:22.518Z,2.42
2019-05-09T07:32:27.979Z,1.87
2019-05-09T07:35:30.715Z,1.62
2019-05-09T07:38:38.433Z,1.85
2019-05-09T07:41:41.867Z,1.80
2019-05-09T07:44:49.593Z,1.82
2019-05-09T07:47:52.150Z,1.60
2019-05-09T07:50:59.722Z,1.90
2019-05-09T07:54:21.158Z,1.60
2019-05-09T07:57:10.366Z,1.72
2019-05-09T08:00:20.128Z,1.57
2019-05-09T08:03:27.645Z,1.55
2019-05-09T08:06:32.777Z,1.42
2019-05-09T08:09:35.587Z,1.40
2019-05-09T08:12:40.323Z,1.40
2019-05-09T08:15:47.641Z,1.40
2019-05-09T08:18:51.783Z,1.50
2019-05-09T08:21:57.809Z,1.50
2019-05-09T08:25:00.570Z,1.25
2019-05-09T08:28:03.476Z,1.47
2019-05-09T08:31:08.338Z,1.17
2019-05-09T08:34:12.239Z,1.42
2019-05-09T08:37:17.561Z,1.52
2019-05-09T08:40:21.458Z,1.30
2019-05-09T08:43:28.294Z,1.30
2019-05-09T08:46:32.876Z,1.32
2019-05-09T08:49:49.373Z,1.40
2019-05-09T08:52:51.217Z,1.50
2019-05-09T08:55:55.050Z,1.52
2019-05-09T08:59:02.007Z,1.70
2019-05-09T09:02:15.323Z,1.47
2019-05-09T09:05:14.032Z,1.30
2019-05-09T09:08:18.379Z,1.45
2019-05-09T09:11:23.802Z,1.30
2019-05-09T09:14:29.682Z,1.17
2019-05-09T09:17:38.327Z,1.62
2019-05-09T09:20:41.794Z,1.62
2019-05-09T09:23:50.625Z,1.50
2019-05-09T09:26:53.014Z,1.40
2019-05-09T09:29:58.697Z,1.30
2019-05-09T09:33:01.555Z,1.40
2019-05-09T09:36:08.552Z,1.20
2019-05-09T09:39:13.422Z,1.32
2019-05-09T09:42:20.031Z,1.52
2019-05-09T09:45:24.686Z,1.32
2019-05-09T09:48:28.486Z,1.17
2019-05-09T09:51:32.847Z,1.32
2019-05-09T09:54:38.609Z,1.10
2019-05-09T09:57:41.440Z,1.12
2019-05-09T10:01:09.055Z,1.10
2019-05-09T10:04:23.549Z,0.98
2019-05-09T10:07:22.131Z,1.17
2019-05-09T10:10:34.400Z,0.95
2019-05-09T10:13:39.046Z,1.15
2019-05-09T10:17:10.325Z,1.10
2019-05-09T10:20:23.030Z,1.15
2019-05-09T10:23:27.281Z,1.10
2019-05-09T10:26:32.876Z,1.15
2019-05-09T10:29:38.736Z,1.12
2019-05-09T10:32:42.734Z,1.12
2019-05-09T10:35:47.755Z,1.32
2019-05-09T10:38:52.959Z,1.10
2019-05-09T10:41:57.649Z,1.50
2019-05-09T10:45:13.506Z,1.47
2019-05-09T10:48:23.894Z,1.22
2019-05-09T10:51:23.821Z,1.50
2019-05-09T10:54:27.851Z,1.60
2019-05-09T10:57:32.815Z,1.25
2019-05-09T11:00:38.871Z,1.50
2019-05-09T11:03:40.299Z,1.45
2019-05-09T11:06:46.935Z,1.67
2019-05-09T11:09:49.763Z,1.20
2019-05-09T11:12:53.602Z,1.50
2019-05-09T11:15:58.303Z,1.70
2019-05-09T11:19:04.578Z,1.60
2019-05-09T11:22:09.629Z,1.65
2019-05-09T11:25:13.470Z,1.85
2019-05-09T11:28:17.908Z,1.70
2019-05-09T11:31:22.347Z,1.92
2019-05-09T11:34:26.241Z,1.70
2019-05-09T11:37:30.094Z,1.70
2019-05-09T11:40:37.854Z,1.98
2019-05-09T11:43:40.375Z,3.37
2019-05-09T11:46:47.698Z,3.45
2019-05-09T11:49:50.598Z,3.58
2019-05-09T11:52:59.954Z,3.33
2019-05-09T11:56:03.295Z,4.92
2019-05-09T11:59:09.127Z,3.60
2019-05-09T12:02:12.015Z,7.40
2019-05-09T12:05:19.140Z,3.47
2019-05-09T12:08:22.550Z,3.05
2019-05-09T12:11:26.618Z,1.75
2019-05-09T12:14:30.584Z,1.60
2019-05-09T12:17:49.746Z,1.27
2019-05-09T12:20:39.086Z,1.60
2019-05-09T12:23:43.041Z,1.27
2019-05-09T12:26:48.838Z,1.60
2019-05-09T12:29:52.686Z,1.40
2019-05-09T12:32:59.057Z,1.90
2019-05-09T12:36:02.045Z,1.50
2019-05-09T12:39:08.751Z,1.20
2019-05-09T12:42:13.496Z,1.27
2019-05-09T12:45:18.036Z,1.30
2019-05-09T12:48:20.978Z,1.50
2019-05-09T12:51:24.991Z,1.80
2019-05-09T12:54:28.855Z,1.90
2019-05-09T12:57:32.725Z,2.42
2019-05-09T13:00:38.417Z,4.17
2019-05-09T13:03:48.255Z,3.85
2019-05-09T13:06:54.776Z,3.55
2019-05-09T13:09:59.318Z,3.60
2019-05-09T13:13:03.289Z,4.22
2019-05-09T13:16:39.020Z,5.20
2019-05-09T13:19:44.766Z,5.83
2019-05-09T13:22:50.542Z,6.22
2019-05-09T13:25:54.448Z,7.25
2019-05-09T13:28:58.834Z,3.60
2019-05-09T13:32:03.002Z,3.60
2019-05-09T13:35:07.749Z,2.08
2019-05-09T13:38:11.248Z,3.58
2019-05-09T13:41:14.003Z,3.20
2019-05-09T13:44:18.299Z,3.17
2019-05-09T13:47:22.486Z,2.58
2019-05-09T13:50:25.304Z,2.22
2019-05-09T13:53:29.368Z,2.80
2019-05-09T13:56:34.499Z,1.80
2019-05-09T13:59:37.903Z,1.85
2019-05-09T14:02:44.734Z,2.00
2019-05-09T14:05:48.389Z,1.82
2019-05-09T14:08:53.189Z,1.92
2019-05-09T14:11:59.016Z,1.60
2019-05-09T14:15:03.899Z,2.00
2019-05-09T14:18:08.309Z,2.00
2019-05-09T14:21:13.382Z,2.02
2019-05-09T14:24:19.411Z,2.00
2019-05-09T14:27:22.522Z,2.35
2019-05-09T14:30:27.541Z,1.98
2019-05-09T14:33:33.825Z,2.05
2019-05-09T14:36:39.165Z,2.12
2019-05-09T14:39:54.919Z,2.35
2019-05-09T14:42:49.624Z,3.08
2019-05-09T14:45:52.653Z,3.90
2019-05-09T14:48:58.374Z,1.60
2019-05-09T14:52:01.604Z,1.75
2019-05-09T14:55:04.771Z,1.42
2019-05-09T14:58:07.908Z,1.90
2019-05-09T15:01:10.862Z,2.25
2019-05-09T15:04:18.812Z,1.60
2019-05-09T15:07:22.606Z,2.62
2019-05-09T15:10:26.542Z,1.27
2019-05-09T15:13:29.869Z,1.30
2019-05-09T15:16:32.603Z,1.55
2019-05-09T15:19:38.281Z,1.17
2019-05-09T15:22:40.355Z,1.65
2019-05-09T15:25:43.131Z,1.70
2019-05-09T15:28:48.355Z,1.55
2019-05-09T15:31:55.157Z,1.80
2019-05-09T15:34:59.726Z,1.37
2019-05-09T15:38:03.761Z,1.10
2019-05-09T15:41:11.925Z,1.10
2019-05-09T15:44:11.535Z,1.20
2019-05-09T15:47:19.486Z,1.05
2019-05-09T15:50:23.427Z,0.90
2019-05-09T15:53:27.855Z,1.10
2019-05-09T15:56:30.629Z,0.98
2019-05-09T15:59:39.009Z,1.30
2019-05-09T16:02:44.308Z,1.10
2019-05-09T16:05:47.850Z,1.02
2019-05-09T16:08:50.786Z,0.80
2019-05-09T16:11:53.606Z,0.90
2019-05-09T16:14:57.651Z,1.00
2019-05-09T16:18:01.518Z,1.20
2019-05-09T16:21:08.286Z,1.00
2019-05-09T16:24:11.294Z,1.10
2019-05-09T16:27:16.124Z,1.00
2019-05-09T16:30:19.082Z,1.02
2019-05-09T16:33:22.040Z,0.75
2019-05-09T16:36:24.782Z,1.10
2019-05-09T16:39:27.967Z,0.85
2019-05-09T16:42:32.213Z,0.90
2019-05-09T16:45:37.868Z,0.98
2019-05-09T16:48:40.658Z,1.25
2019-05-09T16:51:43.523Z,1.40
2019-05-09T16:54:50.122Z,1.10
2019-05-09T16:57:53.126Z,1.17
2019-05-09T17:00:55.878Z,1.25
2019-05-09T17:03:59.988Z,1.30
2019-05-09T17:07:03.793Z,1.00
2019-05-09T17:10:09.049Z,0.82
2019-05-09T17:13:14.933Z,0.98
2019-05-09T17:16:18.907Z,1.20
2019-05-09T17:19:21.798Z,1.30
2019-05-09T17:23:07.583Z,1.17
2019-05-09T17:25:59.290Z,1.60
2019-05-09T17:29:03.239Z,1.80
2019-05-09T17:32:07.778Z,1.65
2019-05-09T17:35:10.683Z,1.40
2019-05-09T17:38:18.087Z,1.40
2019-05-09T17:41:21.030Z,1.40
2019-05-09T17:44:23.766Z,1.57
2019-05-09T17:47:28.419Z,1.30
2019-05-09T17:50:31.359Z,1.40
2019-05-09T17:53:35.171Z,1.30
2019-05-09T17:56:39.077Z,1.90
2019-05-09T17:59:42.969Z,2.00
2019-05-09T18:02:45.841Z,2.45
2019-05-09T18:05:48.789Z,2.00
2019-05-09T18:08:53.570Z,2.98
2019-05-09T18:11:57.922Z,3.12
2019-05-09T18:15:00.810Z,2.65
2019-05-09T18:18:04.754Z,3.20
2019-05-09T18:21:08.770Z,2.95
2019-05-09T18:24:11.826Z,3.00
2019-05-09T18:27:18.100Z,5.03
2019-05-09T18:30:21.203Z,17.23
2019-05-09T18:33:38.838Z,21.10
2019-05-09T18:36:43.026Z,20.45
2019-05-09T18:39:48.294Z,21.77
2019-05-09T18:42:50.720Z,23.38
2019-05-09T18:45:53.559Z,7.28
2019-05-09T18:48:57.382Z,7.80
2019-05-09T18:52:03.873Z,9.43
2019-05-09T18:55:06.862Z,6.20
2019-05-09T18:58:11.397Z,5.90
2019-05-09T19:01:15.384Z,5.45
2019-05-09T19:04:19.319Z,4.22
2019-05-09T19:07:22.980Z,5.70
2019-05-09T19:10:26.035Z,6.22
2019-05-09T19:13:30.358Z,6.53
2019-05-09T19:16:39.561Z,7.35
2019-05-09T19:19:48.567Z,7.45
2019-05-09T19:22:51.383Z,8.00
2019-05-09T19:25:57.891Z,6.87
2019-05-09T19:29:04.056Z,6.28
2019-05-09T19:32:08.206Z,6.95
2019-05-09T19:35:12.794Z,5.92
2019-05-09T19:38:17.651Z,6.58
2019-05-09T19:41:20.378Z,5.60
2019-05-09T19:44:26.006Z,5.95
2019-05-09T19:47:28.830Z,5.08
2019-05-09T19:50:31.585Z,5.25
2019-05-09T19:53:37.631Z,4.70
2019-05-09T19:56:40.740Z,5.28
2019-05-09T19:59:43.530Z,5.80
2019-05-09T20:02:46.385Z,6.83
2019-05-09T20:05:51.340Z,6.33
2019-05-09T20:08:54.268Z,5.95
2019-05-09T20:12:16.447Z,6.37
2019-05-09T20:15:19.924Z,5.30
2019-05-09T20:18:22.808Z,5.55
2019-05-09T20:21:25.894Z,5.28
2019-05-09T20:24:28.887Z,7.10
2019-05-09T20:27:31.868Z,5.20
2019-05-09T20:30:37.534Z,5.62
2019-05-09T20:33:40.552Z,5.42
2019-05-09T20:36:43.626Z,6.30
2019-05-09T20:39:46.711Z,5.62
2019-05-09T20:42:50.234Z,6.03
2019-05-09T20:45:53.202Z,5.60
2019-05-09T20:48:57.934Z,5.95
2019-05-09T20:52:03.093Z,6.40
2019-05-09T20:55:07.287Z,6.83
2019-05-09T20:58:10.287Z,7.15
2019-05-09T21:01:13.277Z,10.32
2019-05-09T21:04:16.270Z,11.60
2019-05-09T21:07:21.102Z,10.15
2019-05-09T21:10:24.074Z,9.28
2019-05-09T21:13:28.242Z,8.13
2019-05-09T21:16:34.589Z,8.05
2019-05-09T21:19:38.618Z,7.65
2019-05-09T21:23:37.498Z,7.80
2019-05-09T21:26:56.856Z,8.33
2019-05-09T21:30:26.294Z,8.70
2019-05-09T21:34:21.187Z,9.40
2019-05-09T21:37:28.918Z,8.90
2019-05-09T21:40:32.094Z,9.35
2019-05-09T21:43:36.515Z,9.85
2019-05-09T21:46:41.124Z,10.23
2019-05-09T21:49:46.798Z,9.65
2019-05-09T21:52:52.663Z,10.48
2019-05-09T21:56:05.802Z,10.53
2019-05-09T21:59:09.898Z,10.48
2019-05-09T22:02:49.553Z,10.25
2019-05-09T22:05:52.759Z,9.73
2019-05-09T22:08:56.869Z,10.50
2019-05-09T22:12:00.797Z,9.98
2019-05-09T22:15:04.212Z,10.05
2019-05-09T22:18:12.186Z,11.28
2019-05-09T22:21:22.236Z,11.38
2019-05-09T22:28:47.485Z,10.35
2019-05-09T22:31:51.401Z,9.85
2019-05-09T22:34:55.727Z,10.50
2019-05-09T22:38:02.130Z,10.10
2019-05-09T22:41:05.175Z,9.25
2019-05-09T22:44:08.168Z,11.10
2019-05-09T22:47:10.990Z,12.05
2019-05-09T22:50:15.290Z,12.78
2019-05-09T22:53:18.323Z,12.05
2019-05-09T22:56:22.486Z,12.28
2019-05-09T23:00:26.893Z,11.12
2019-05-09T23:03:49.995Z,11.43
2019-05-09T23:06:56.101Z,8.55
2019-05-09T23:10:02.322Z,7.45
2019-05-09T23:13:06.227Z,7.53
2019-05-09T23:16:12.083Z,10.70
2019-05-09T23:19:19.495Z,11.00
2019-05-09T23:22:26.356Z,11.33
2019-05-09T23:25:30.474Z,12.73
2019-05-09T23:28:35.730Z,11.20
2019-05-09T23:31:47.735Z,11.97
2019-05-09T23:34:50.710Z,12.03
2019-05-09T23:37:53.809Z,11.68
2019-05-09T23:40:56.703Z,9.75
2019-05-09T23:44:00.951Z,9.53
2019-05-09T23:47:06.027Z,9.83
2019-05-09T23:50:09.235Z,11.68
2019-05-09T23:53:17.183Z,10.38
2019-05-09T23:56:40.130Z,11.33
